sensor_id;sensor_type;location;lat;lon;timestamp;temperature;humidity
27779;DHT22;30234;48.090;11.464;2022-10-31T00:01:57;8.10;99.90
27779;DHT22;30234;48.090;11.464;2022-10-31T00:05:58;8.00;99.90
27779;DHT22;30234;48.090;11.464;2022-10-31T00:10:02;7.90;99.90
27779;DHT22;30234;48.090;11.464;2022-10-31T00:14:03;8.00;99.90
27779;DHT22;30234;48.090;11.464;2022-10-31T00:18:05;8.00;99.90
27779;DHT22;30234;48.090;11.464;2022-10-31T00:22:07;7.80;99.90
27779;DHT22;30234;48.090;11.464;2022-10-31T00:26:07;7.90;99.90
27779;DHT22;30234;48.090;11.464;2022-10-31T00:30:08;7.90;99.90
27779;DHT22;30234;48.090;11.464;2022-10-31T00:34:09;7.90;99.90
27779;DHT22;30234;48.090;11.464;2022-10-31T00:38:10;7.70;99.90
27779;DHT22;30234;48.090;11.464;2022-10-31T00:42:11;7.70;99.90
27779;DHT22;30234;48.090;11.464;2022-10-31T00:46:12;7.70;99.90
27779;DHT22;30234;48.090;11.464;2022-10-31T00:50:13;7.80;99.90
27779;DHT22;30234;48.090;11.464;2022-10-31T00:54:14;7.80;99.90
27779;DHT22;30234;48.090;11.464;2022-10-31T00:58:15;7.70;99.90
27779;DHT22;30234;48.090;11.464;2022-10-31T01:02:16;7.70;99.90
27779;DHT22;30234;48.090;11.464;2022-10-31T01:06:16;7.80;99.90
27779;DHT22;30234;48.090;11.464;2022-10-31T01:10:17;7.80;99.90
27779;DHT22;30234;48.090;11.464;2022-10-31T01:14:18;7.80;99.90
27779;DHT22;30234;48.090;11.464;2022-10-31T01:18:19;7.80;99.90
27779;DHT22;30234;48.090;11.464;2022-10-31T01:22:20;7.90;99.90
27779;DHT22;30234;48.090;11.464;2022-10-31T01:26:29;8.00;99.90
27779;DHT22;30234;48.090;11.464;2022-10-31T01:30:33;8.10;99.90
27779;DHT22;30234;48.090;11.464;2022-10-31T01:34:33;8.00;99.90
27779;DHT22;30234;48.090;11.464;2022-10-31T01:38:34;8.00;99.90
27779;DHT22;30234;48.090;11.464;2022-10-31T01:42:35;8.00;99.90
27779;DHT22;30234;48.090;11.464;2022-10-31T01:46:38;8.00;99.90
27779;DHT22;30234;48.090;11.464;2022-10-31T01:50:41;8.10;99.90
27779;DHT22;30234;48.090;11.464;2022-10-31T01:54:55;8.20;99.90
27779;DHT22;30234;48.090;11.464;2022-10-31T01:58:59;8.00;99.90
27779;DHT22;30234;48.090;11.464;2022-10-31T02:03:00;7.90;99.90
27779;DHT22;30234;48.090;11.464;2022-10-31T02:07:05;7.80;99.90
27779;DHT22;30234;48.090;11.464;2022-10-31T02:11:10;7.80;99.90
27779;DHT22;30234;48.090;11.464;2022-10-31T02:15:11;7.80;99.90
27779;DHT22;30234;48.090;11.464;2022-10-31T02:24:17;7.60;99.90
27779;DHT22;30234;48.090;11.464;2022-10-31T02:33:27;7.50;99.90
27779;DHT22;30234;48.090;11.464;2022-10-31T02:42:07;7.70;99.90
27779;DHT22;30234;48.090;11.464;2022-10-31T02:51:04;7.60;99.90
27779;DHT22;30234;48.090;11.464;2022-10-31T02:55:11;7.50;99.90
27779;DHT22;30234;48.090;11.464;2022-10-31T02:59:35;7.40;99.90
27779;DHT22;30234;48.090;11.464;2022-10-31T03:18:01;7.20;99.90
27779;DHT22;30234;48.090;11.464;2022-10-31T03:22:17;7.20;99.90
27779;DHT22;30234;48.090;11.464;2022-10-31T03:26:21;7.30;99.90
27779;DHT22;30234;48.090;11.464;2022-10-31T03:30:24;7.30;99.90
27779;DHT22;30234;48.090;11.464;2022-10-31T03:34:25;7.50;99.90
27779;DHT22;30234;48.090;11.464;2022-10-31T03:38:28;7.40;99.90
27779;DHT22;30234;48.090;11.464;2022-10-31T03:42:32;7.40;99.90
27779;DHT22;30234;48.090;11.464;2022-10-31T03:46:34;7.40;99.90
27779;DHT22;30234;48.090;11.464;2022-10-31T03:51:00;7.30;99.90
27779;DHT22;30234;48.090;11.464;2022-10-31T03:59:40;7.30;99.90
27779;DHT22;30234;48.090;11.464;2022-10-31T04:03:43;7.20;99.90
27779;DHT22;30234;48.090;11.464;2022-10-31T04:07:46;7.20;99.90
27779;DHT22;30234;48.090;11.464;2022-10-31T04:11:53;7.20;99.90
27779;DHT22;30234;48.090;11.464;2022-10-31T04:15:55;7.20;99.90
27779;DHT22;30234;48.090;11.464;2022-10-31T04:19:59;7.10;99.90
27779;DHT22;30234;48.090;11.464;2022-10-31T04:24:00;7.10;99.90
27779;DHT22;30234;48.090;11.464;2022-10-31T04:28:01;7.00;99.90
27779;DHT22;30234;48.090;11.464;2022-10-31T04:32:02;7.00;99.90
27779;DHT22;30234;48.090;11.464;2022-10-31T04:36:03;7.00;99.90
27779;DHT22;30234;48.090;11.464;2022-10-31T04:40:07;6.90;99.90
27779;DHT22;30234;48.090;11.464;2022-10-31T04:44:08;6.90;99.90
27779;DHT22;30234;48.090;11.464;2022-10-31T04:48:09;7.00;99.90
27779;DHT22;30234;48.090;11.464;2022-10-31T04:52:10;6.90;99.90
27779;DHT22;30234;48.090;11.464;2022-10-31T04:56:11;6.90;99.90
27779;DHT22;30234;48.090;11.464;2022-10-31T05:00:13;6.80;99.90
27779;DHT22;30234;48.090;11.464;2022-10-31T05:04:14;6.70;99.90
27779;DHT22;30234;48.090;11.464;2022-10-31T05:08:15;6.50;99.90
27779;DHT22;30234;48.090;11.464;2022-10-31T05:12:16;6.50;99.90
27779;DHT22;30234;48.090;11.464;2022-10-31T05:16:16;6.50;99.90
27779;DHT22;30234;48.090;11.464;2022-10-31T05:20:19;6.50;99.90
27779;DHT22;30234;48.090;11.464;2022-10-31T05:24:21;6.40;99.90
27779;DHT22;30234;48.090;11.464;2022-10-31T05:28:22;6.40;99.90
27779;DHT22;30234;48.090;11.464;2022-10-31T05:32:22;6.30;99.90
27779;DHT22;30234;48.090;11.464;2022-10-31T05:36:23;6.40;99.90
27779;DHT22;30234;48.090;11.464;2022-10-31T05:40:25;6.40;99.90
27779;DHT22;30234;48.090;11.464;2022-10-31T05:44:27;6.40;99.90
27779;DHT22;30234;48.090;11.464;2022-10-31T05:48:27;6.40;99.90
27779;DHT22;30234;48.090;11.464;2022-10-31T05:52:28;6.50;99.90
27779;DHT22;30234;48.090;11.464;2022-10-31T05:56:29;6.50;99.90
27779;DHT22;30234;48.090;11.464;2022-10-31T06:00:30;6.60;99.90
27779;DHT22;30234;48.090;11.464;2022-10-31T06:04:30;6.60;99.90
27779;DHT22;30234;48.090;11.464;2022-10-31T06:08:31;6.70;99.90
27779;DHT22;30234;48.090;11.464;2022-10-31T06:12:33;6.70;99.90
27779;DHT22;30234;48.090;11.464;2022-10-31T06:16:37;6.70;99.90
27779;DHT22;30234;48.090;11.464;2022-10-31T06:20:38;6.60;99.90
27779;DHT22;30234;48.090;11.464;2022-10-31T06:24:39;6.70;99.90
27779;DHT22;30234;48.090;11.464;2022-10-31T06:28:40;6.80;99.90
27779;DHT22;30234;48.090;11.464;2022-10-31T06:32:40;6.90;99.90
27779;DHT22;30234;48.090;11.464;2022-10-31T06:36:41;7.10;99.90
27779;DHT22;30234;48.090;11.464;2022-10-31T06:40:42;7.20;99.90
27779;DHT22;30234;48.090;11.464;2022-10-31T06:44:42;7.50;99.90
27779;DHT22;30234;48.090;11.464;2022-10-31T06:48:43;7.70;99.90
27779;DHT22;30234;48.090;11.464;2022-10-31T06:52:53;8.30;99.90
27779;DHT22;30234;48.090;11.464;2022-10-31T06:56:57;10.80;99.90
27779;DHT22;30234;48.090;11.464;2022-10-31T07:01:01;12.20;99.90
27779;DHT22;30234;48.090;11.464;2022-10-31T07:05:02;12.60;99.90
27779;DHT22;30234;48.090;11.464;2022-10-31T07:09:03;13.20;99.90
27779;DHT22;30234;48.090;11.464;2022-10-31T07:13:06;14.70;99.90
27779;DHT22;30234;48.090;11.464;2022-10-31T07:17:09;16.40;99.90
27779;DHT22;30234;48.090;11.464;2022-10-31T07:21:09;18.30;99.90
27779;DHT22;30234;48.090;11.464;2022-10-31T07:25:11;20.10;99.90
27779;DHT22;30234;48.090;11.464;2022-10-31T07:29:11;21.60;99.90
27779;DHT22;30234;48.090;11.464;2022-10-31T07:33:12;23.40;99.90
27779;DHT22;30234;48.090;11.464;2022-10-31T07:37:13;24.50;99.90
27779;DHT22;30234;48.090;11.464;2022-10-31T07:41:14;25.90;99.90
27779;DHT22;30234;48.090;11.464;2022-10-31T07:45:17;27.00;99.90
27779;DHT22;30234;48.090;11.464;2022-10-31T07:49:19;27.80;93.60
27779;DHT22;30234;48.090;11.464;2022-10-31T07:53:20;28.60;93.50
27779;DHT22;30234;48.090;11.464;2022-10-31T07:57:21;29.30;88.50
27779;DHT22;30234;48.090;11.464;2022-10-31T08:01:21;30.00;82.60
27779;DHT22;30234;48.090;11.464;2022-10-31T08:05:22;30.60;73.90
27779;DHT22;30234;48.090;11.464;2022-10-31T08:09:23;30.70;69.90
27779;DHT22;30234;48.090;11.464;2022-10-31T08:13:23;31.60;67.50
27779;DHT22;30234;48.090;11.464;2022-10-31T08:17:24;32.30;62.50
27779;DHT22;30234;48.090;11.464;2022-10-31T08:21:25;32.70;57.90
27779;DHT22;30234;48.090;11.464;2022-10-31T08:25:28;32.50;56.40
27779;DHT22;30234;48.090;11.464;2022-10-31T08:29:30;31.40;55.70
27779;DHT22;30234;48.090;11.464;2022-10-31T08:33:30;30.00;57.60
27779;DHT22;30234;48.090;11.464;2022-10-31T08:37:31;30.40;57.90
27779;DHT22;30234;48.090;11.464;2022-10-31T08:41:32;30.50;56.70
27779;DHT22;30234;48.090;11.464;2022-10-31T08:45:33;30.50;56.30
27779;DHT22;30234;48.090;11.464;2022-10-31T08:49:34;30.10;57.90
27779;DHT22;30234;48.090;11.464;2022-10-31T08:53:35;30.50;56.50
27779;DHT22;30234;48.090;11.464;2022-10-31T08:57:36;29.60;57.10
27779;DHT22;30234;48.090;11.464;2022-10-31T09:01:37;27.90;61.00
27779;DHT22;30234;48.090;11.464;2022-10-31T09:05:37;27.60;61.10
27779;DHT22;30234;48.090;11.464;2022-10-31T09:09:38;27.40;62.30
27779;DHT22;30234;48.090;11.464;2022-10-31T09:13:39;27.40;62.20
27779;DHT22;30234;48.090;11.464;2022-10-31T09:17:46;27.00;61.80
27779;DHT22;30234;48.090;11.464;2022-10-31T09:21:51;26.90;62.00
27779;DHT22;30234;48.090;11.464;2022-10-31T09:25:53;26.50;64.00
27779;DHT22;30234;48.090;11.464;2022-10-31T09:29:54;26.70;62.50
27779;DHT22;30234;48.090;11.464;2022-10-31T09:33:55;26.70;62.20
27779;DHT22;30234;48.090;11.464;2022-10-31T09:38:00;25.10;64.60
27779;DHT22;30234;48.090;11.464;2022-10-31T09:47:05;23.60;71.20
27779;DHT22;30234;48.090;11.464;2022-10-31T09:51:20;23.70;71.70
27779;DHT22;30234;48.090;11.464;2022-10-31T09:55:44;23.80;71.30
27779;DHT22;30234;48.090;11.464;2022-10-31T09:59:48;23.70;71.40
27779;DHT22;30234;48.090;11.464;2022-10-31T10:03:53;24.00;72.20
27779;DHT22;30234;48.090;11.464;2022-10-31T10:08:26;25.50;69.30
27779;DHT22;30234;48.090;11.464;2022-10-31T10:17:18;25.70;68.00
27779;DHT22;30234;48.090;11.464;2022-10-31T10:26:18;26.10;66.00
27779;DHT22;30234;48.090;11.464;2022-10-31T10:30:21;25.70;67.20
27779;DHT22;30234;48.090;11.464;2022-10-31T10:34:31;25.00;66.50
27779;DHT22;30234;48.090;11.464;2022-10-31T10:38:57;24.30;69.40
27779;DHT22;30234;48.090;11.464;2022-10-31T10:43:21;24.10;69.80
27779;DHT22;30234;48.090;11.464;2022-10-31T10:47:42;23.70;69.60
27779;DHT22;30234;48.090;11.464;2022-10-31T10:52:06;23.40;71.10
27779;DHT22;30234;48.090;11.464;2022-10-31T10:56:36;22.70;72.70
27779;DHT22;30234;48.090;11.464;2022-10-31T11:00:54;22.10;75.30
27779;DHT22;30234;48.090;11.464;2022-10-31T11:04:57;21.90;76.90
27779;DHT22;30234;48.090;11.464;2022-10-31T11:09:09;21.70;77.90
27779;DHT22;30234;48.090;11.464;2022-10-31T11:17:25;22.70;76.90
27779;DHT22;30234;48.090;11.464;2022-10-31T11:21:34;24.10;73.60
27779;DHT22;30234;48.090;11.464;2022-10-31T11:25:35;24.60;72.40
27779;DHT22;30234;48.090;11.464;2022-10-31T11:29:36;24.70;70.50
27779;DHT22;30234;48.090;11.464;2022-10-31T11:33:48;24.50;68.90
27779;DHT22;30234;48.090;11.464;2022-10-31T11:37:52;24.30;71.20
27779;DHT22;30234;48.090;11.464;2022-10-31T11:41:54;23.70;70.30
27779;DHT22;30234;48.090;11.464;2022-10-31T11:45:56;23.50;69.30
27779;DHT22;30234;48.090;11.464;2022-10-31T11:49:57;23.90;67.80
27779;DHT22;30234;48.090;11.464;2022-10-31T11:54:03;23.40;67.90
27779;DHT22;30234;48.090;11.464;2022-10-31T11:58:18;22.50;71.30
27779;DHT22;30234;48.090;11.464;2022-10-31T12:02:26;22.00;71.80
27779;DHT22;30234;48.090;11.464;2022-10-31T12:06:44;21.40;74.70
27779;DHT22;30234;48.090;11.464;2022-10-31T12:15:31;21.10;77.00
27779;DHT22;30234;48.090;11.464;2022-10-31T12:19:48;21.10;77.50
27779;DHT22;30234;48.090;11.464;2022-10-31T13:00:16;22.80;73.60
27779;DHT22;30234;48.090;11.464;2022-10-31T13:04:36;23.10;72.90
27779;DHT22;30234;48.090;11.464;2022-10-31T13:08:46;23.10;73.70
27779;DHT22;30234;48.090;11.464;2022-10-31T13:12:54;22.60;74.10
27779;DHT22;30234;48.090;11.464;2022-10-31T13:16:59;22.30;74.80
27779;DHT22;30234;48.090;11.464;2022-10-31T13:21:07;21.90;76.70
27779;DHT22;30234;48.090;11.464;2022-10-31T13:25:28;21.80;78.00
27779;DHT22;30234;48.090;11.464;2022-10-31T13:30:00;21.50;78.20
27779;DHT22;30234;48.090;11.464;2022-10-31T13:34:18;21.00;80.20
27779;DHT22;30234;48.090;11.464;2022-10-31T13:38:45;20.80;81.00
27779;DHT22;30234;48.090;11.464;2022-10-31T13:47:32;20.70;82.80
27779;DHT22;30234;48.090;11.464;2022-10-31T13:51:34;20.50;83.80
27779;DHT22;30234;48.090;11.464;2022-10-31T13:59:53;20.30;86.20
27779;DHT22;30234;48.090;11.464;2022-10-31T14:04:05;20.30;85.40
27779;DHT22;30234;48.090;11.464;2022-10-31T14:08:18;20.50;86.30
27779;DHT22;30234;48.090;11.464;2022-10-31T14:12:26;21.20;83.50
27779;DHT22;30234;48.090;11.464;2022-10-31T14:16:43;22.40;80.00
27779;DHT22;30234;48.090;11.464;2022-10-31T14:20:45;23.10;77.00
27779;DHT22;30234;48.090;11.464;2022-10-31T14:24:46;22.90;76.50
27779;DHT22;30234;48.090;11.464;2022-10-31T14:28:48;22.40;78.60
27779;DHT22;30234;48.090;11.464;2022-10-31T14:32:57;21.50;80.20
27779;DHT22;30234;48.090;11.464;2022-10-31T14:41:51;20.20;87.20
27779;DHT22;30234;48.090;11.464;2022-10-31T14:46:09;20.00;88.00
27779;DHT22;30234;48.090;11.464;2022-10-31T14:50:38;20.70;86.10
27779;DHT22;30234;48.090;11.464;2022-10-31T14:54:47;21.40;83.80
27779;DHT22;30234;48.090;11.464;2022-10-31T14:58:50;21.20;84.40
27779;DHT22;30234;48.090;11.464;2022-10-31T15:03:14;20.40;87.30
27779;DHT22;30234;48.090;11.464;2022-10-31T15:07:20;19.70;90.40
27779;DHT22;30234;48.090;11.464;2022-10-31T15:11:26;19.30;91.50
27779;DHT22;30234;48.090;11.464;2022-10-31T15:15:27;19.10;92.30
27779;DHT22;30234;48.090;11.464;2022-10-31T15:19:30;19.10;93.30
27779;DHT22;30234;48.090;11.464;2022-10-31T15:23:33;18.90;94.10
27779;DHT22;30234;48.090;11.464;2022-10-31T15:27:34;18.80;94.90
27779;DHT22;30234;48.090;11.464;2022-10-31T15:31:35;18.60;95.80
27779;DHT22;30234;48.090;11.464;2022-10-31T15:35:35;18.30;97.10
27779;DHT22;30234;48.090;11.464;2022-10-31T15:39:36;18.00;98.80
27779;DHT22;30234;48.090;11.464;2022-10-31T15:43:38;17.70;99.90
27779;DHT22;30234;48.090;11.464;2022-10-31T15:47:46;17.60;99.90
27779;DHT22;30234;48.090;11.464;2022-10-31T15:51:54;17.20;99.90
27779;DHT22;30234;48.090;11.464;2022-10-31T15:56:01;16.90;99.90
27779;DHT22;30234;48.090;11.464;2022-10-31T16:00:05;16.80;99.90
27779;DHT22;30234;48.090;11.464;2022-10-31T16:08:44;16.30;99.90
27779;DHT22;30234;48.090;11.464;2022-10-31T16:12:46;15.90;99.90
27779;DHT22;30234;48.090;11.464;2022-10-31T16:16:52;15.70;99.90
27779;DHT22;30234;48.090;11.464;2022-10-31T16:20:55;15.40;99.90
27779;DHT22;30234;48.090;11.464;2022-10-31T16:25:23;15.20;99.90
27779;DHT22;30234;48.090;11.464;2022-10-31T16:29:42;14.80;99.90
27779;DHT22;30234;48.090;11.464;2022-10-31T16:33:43;14.60;99.90
27779;DHT22;30234;48.090;11.464;2022-10-31T16:37:45;14.30;99.90
27779;DHT22;30234;48.090;11.464;2022-10-31T16:41:50;13.90;99.90
27779;DHT22;30234;48.090;11.464;2022-10-31T16:45:52;13.60;99.90
27779;DHT22;30234;48.090;11.464;2022-10-31T16:49:53;13.30;99.90
27779;DHT22;30234;48.090;11.464;2022-10-31T16:53:54;13.20;99.90
27779;DHT22;30234;48.090;11.464;2022-10-31T16:57:56;13.00;99.90
27779;DHT22;30234;48.090;11.464;2022-10-31T17:01:58;12.60;99.90
27779;DHT22;30234;48.090;11.464;2022-10-31T17:05:59;12.30;99.90
27779;DHT22;30234;48.090;11.464;2022-10-31T17:10:00;12.20;99.90
27779;DHT22;30234;48.090;11.464;2022-10-31T17:14:01;12.10;99.90
27779;DHT22;30234;48.090;11.464;2022-10-31T17:18:03;12.00;99.90
27779;DHT22;30234;48.090;11.464;2022-10-31T17:22:05;11.80;99.90
27779;DHT22;30234;48.090;11.464;2022-10-31T17:26:07;11.70;99.90
27779;DHT22;30234;48.090;11.464;2022-10-31T17:30:13;11.60;99.90
27779;DHT22;30234;48.090;11.464;2022-10-31T17:34:14;11.40;99.90
27779;DHT22;30234;48.090;11.464;2022-10-31T17:38:15;11.30;99.90
27779;DHT22;30234;48.090;11.464;2022-10-31T17:42:16;11.10;99.90
27779;DHT22;30234;48.090;11.464;2022-10-31T17:46:16;11.00;99.90
27779;DHT22;30234;48.090;11.464;2022-10-31T17:50:20;10.90;99.90
27779;DHT22;30234;48.090;11.464;2022-10-31T17:54:21;10.70;99.90
27779;DHT22;30234;48.090;11.464;2022-10-31T17:58:22;10.60;99.90
27779;DHT22;30234;48.090;11.464;2022-10-31T18:02:23;10.50;99.90
27779;DHT22;30234;48.090;11.464;2022-10-31T18:06:24;10.50;99.90
27779;DHT22;30234;48.090;11.464;2022-10-31T18:10:25;10.50;99.90
27779;DHT22;30234;48.090;11.464;2022-10-31T18:14:26;10.40;99.90
27779;DHT22;30234;48.090;11.464;2022-10-31T18:18:28;10.30;99.90
27779;DHT22;30234;48.090;11.464;2022-10-31T18:22:29;10.20;99.90
27779;DHT22;30234;48.090;11.464;2022-10-31T18:26:30;10.10;99.90
27779;DHT22;30234;48.090;11.464;2022-10-31T18:30:32;10.10;99.90
27779;DHT22;30234;48.090;11.464;2022-10-31T18:34:33;10.00;99.90
27779;DHT22;30234;48.090;11.464;2022-10-31T18:38:37;9.80;99.90
27779;DHT22;30234;48.090;11.464;2022-10-31T18:42:39;9.90;99.90
27779;DHT22;30234;48.090;11.464;2022-10-31T18:46:40;9.90;99.90
27779;DHT22;30234;48.090;11.464;2022-10-31T18:50:41;9.80;99.90
27779;DHT22;30234;48.090;11.464;2022-10-31T18:54:42;9.70;99.90
27779;DHT22;30234;48.090;11.464;2022-10-31T18:58:44;9.60;99.90
27779;DHT22;30234;48.090;11.464;2022-10-31T19:02:44;9.40;99.90
27779;DHT22;30234;48.090;11.464;2022-10-31T19:06:45;9.30;99.90
27779;DHT22;30234;48.090;11.464;2022-10-31T19:10:46;9.20;99.90
27779;DHT22;30234;48.090;11.464;2022-10-31T19:14:47;9.10;99.90
27779;DHT22;30234;48.090;11.464;2022-10-31T19:18:48;9.00;99.90
27779;DHT22;30234;48.090;11.464;2022-10-31T19:22:56;9.00;99.90
27779;DHT22;30234;48.090;11.464;2022-10-31T19:26:57;8.90;99.90
27779;DHT22;30234;48.090;11.464;2022-10-31T19:31:00;8.90;99.90
27779;DHT22;30234;48.090;11.464;2022-10-31T19:35:00;8.80;99.90
27779;DHT22;30234;48.090;11.464;2022-10-31T19:39:02;8.70;99.90
27779;DHT22;30234;48.090;11.464;2022-10-31T19:43:03;8.70;99.90
27779;DHT22;30234;48.090;11.464;2022-10-31T19:47:04;8.70;99.90
27779;DHT22;30234;48.090;11.464;2022-10-31T19:51:07;8.60;99.90
27779;DHT22;30234;48.090;11.464;2022-10-31T19:55:09;8.60;99.90
27779;DHT22;30234;48.090;11.464;2022-10-31T19:59:10;8.50;99.90
27779;DHT22;30234;48.090;11.464;2022-10-31T20:03:11;8.50;99.90
27779;DHT22;30234;48.090;11.464;2022-10-31T20:07:12;8.30;99.90
27779;DHT22;30234;48.090;11.464;2022-10-31T20:11:13;8.20;99.90
27779;DHT22;30234;48.090;11.464;2022-10-31T20:15:14;8.20;99.90
27779;DHT22;30234;48.090;11.464;2022-10-31T20:19:15;8.20;99.90
27779;DHT22;30234;48.090;11.464;2022-10-31T20:23:16;8.20;99.90
27779;DHT22;30234;48.090;11.464;2022-10-31T20:27:16;8.20;99.90
27779;DHT22;30234;48.090;11.464;2022-10-31T20:31:20;8.30;99.90
27779;DHT22;30234;48.090;11.464;2022-10-31T20:35:21;8.20;99.90
27779;DHT22;30234;48.090;11.464;2022-10-31T20:39:22;8.20;99.90
27779;DHT22;30234;48.090;11.464;2022-10-31T20:43:23;8.10;99.90
27779;DHT22;30234;48.090;11.464;2022-10-31T20:47:23;8.10;99.90
27779;DHT22;30234;48.090;11.464;2022-10-31T20:51:27;8.00;99.90
27779;DHT22;30234;48.090;11.464;2022-10-31T20:55:28;7.80;99.90
27779;DHT22;30234;48.090;11.464;2022-10-31T20:59:28;7.60;99.90
27779;DHT22;30234;48.090;11.464;2022-10-31T21:03:29;7.60;99.90
27779;DHT22;30234;48.090;11.464;2022-10-31T21:07:30;7.60;99.90
27779;DHT22;30234;48.090;11.464;2022-10-31T21:11:31;7.40;99.90
27779;DHT22;30234;48.090;11.464;2022-10-31T21:15:31;7.50;99.90
27779;DHT22;30234;48.090;11.464;2022-10-31T21:19:32;7.40;99.90
27779;DHT22;30234;48.090;11.464;2022-10-31T21:23:35;7.50;99.90
27779;DHT22;30234;48.090;11.464;2022-10-31T21:27:36;7.60;99.90
27779;DHT22;30234;48.090;11.464;2022-10-31T21:31:38;7.90;99.90
27779;DHT22;30234;48.090;11.464;2022-10-31T21:35:39;8.10;99.90
27779;DHT22;30234;48.090;11.464;2022-10-31T21:39:40;8.40;99.90
27779;DHT22;30234;48.090;11.464;2022-10-31T21:43:43;8.40;99.90
27779;DHT22;30234;48.090;11.464;2022-10-31T21:47:44;8.30;99.90
27779;DHT22;30234;48.090;11.464;2022-10-31T21:51:45;8.40;99.90
27779;DHT22;30234;48.090;11.464;2022-10-31T21:55:46;8.30;99.90
27779;DHT22;30234;48.090;11.464;2022-10-31T21:59:47;8.20;99.90
27779;DHT22;30234;48.090;11.464;2022-10-31T22:03:48;8.20;99.90
27779;DHT22;30234;48.090;11.464;2022-10-31T22:07:49;8.20;99.90
27779;DHT22;30234;48.090;11.464;2022-10-31T22:11:50;8.00;99.90
27779;DHT22;30234;48.090;11.464;2022-10-31T22:15:51;8.00;99.90
27779;DHT22;30234;48.090;11.464;2022-10-31T22:19:51;8.10;99.90
27779;DHT22;30234;48.090;11.464;2022-10-31T22:23:55;8.00;99.90
27779;DHT22;30234;48.090;11.464;2022-10-31T22:27:57;7.80;99.90
27779;DHT22;30234;48.090;11.464;2022-10-31T22:31:59;7.80;99.90
27779;DHT22;30234;48.090;11.464;2022-10-31T22:36:02;7.60;99.90
27779;DHT22;30234;48.090;11.464;2022-10-31T22:40:05;7.50;99.90
27779;DHT22;30234;48.090;11.464;2022-10-31T22:44:06;7.60;99.90
27779;DHT22;30234;48.090;11.464;2022-10-31T22:48:07;7.50;99.90
27779;DHT22;30234;48.090;11.464;2022-10-31T22:52:08;7.50;99.90
27779;DHT22;30234;48.090;11.464;2022-10-31T22:56:10;7.40;99.90
27779;DHT22;30234;48.090;11.464;2022-10-31T23:00:13;7.40;99.90
27779;DHT22;30234;48.090;11.464;2022-10-31T23:04:14;7.30;99.90
27779;DHT22;30234;48.090;11.464;2022-10-31T23:08:15;7.40;99.90
27779;DHT22;30234;48.090;11.464;2022-10-31T23:12:16;7.30;99.90
27779;DHT22;30234;48.090;11.464;2022-10-31T23:20:37;7.10;99.90
27779;DHT22;30234;48.090;11.464;2022-10-31T23:24:43;7.30;99.90
27779;DHT22;30234;48.090;11.464;2022-10-31T23:28:45;7.50;99.90
27779;DHT22;30234;48.090;11.464;2022-10-31T23:32:46;7.50;99.90
27779;DHT22;30234;48.090;11.464;2022-10-31T23:36:47;7.40;99.90
27779;DHT22;30234;48.090;11.464;2022-10-31T23:40:48;7.40;99.90
27779;DHT22;30234;48.090;11.464;2022-10-31T23:44:49;7.60;99.90
27779;DHT22;30234;48.090;11.464;2022-10-31T23:48:50;7.60;99.90
27779;DHT22;30234;48.090;11.464;2022-10-31T23:52:52;7.60;99.90
27779;DHT22;30234;48.090;11.464;2022-10-31T23:56:53;7.50;99.90
